Terminal Aerodrome Forecast
Issued by NWS

Home | Current Version | Previous Version | Text Only | Print | Product List | Glossary On
Versions: 1 2 3 4 5 6 7 8 9 10 11 12 13 14 15 16 17 18 19 20
000
FTUS41 KGYX 010530
TAFPSM
TAF
KPSM 010530Z 0106/0206 14007KT P6SM SCT050 BKN100
     FM011200 12009KT 2SM -RA BR OVC010 PROB30 0116/0120 3SM -TSRA
      OVC010CB
     FM020000 18008KT 1 1/2SM SHRA BR OVC015
     FM020500 27007KT P6SM BKN050=

USA.gov is the U.S. government's official web portal to all federal, state and local government web resources and services.